sensor_id;sensor_type;location;lat;lon;timestamp;P1;durP1;ratioP1;P2;durP2;ratioP2
17830;SDS011;9040;51.332;12.406;2022-09-14T00:02:15;17.10;;;12.80;;
17830;SDS011;9040;51.332;12.406;2022-09-14T00:04:42;15.80;;;12.00;;
17830;SDS011;9040;51.332;12.406;2022-09-14T00:07:09;11.93;;;10.50;;
17830;SDS011;9040;51.332;12.406;2022-09-14T00:09:37;21.73;;;12.90;;
17830;SDS011;9040;51.332;12.406;2022-09-14T00:12:04;13.60;;;12.20;;
17830;SDS011;9040;51.332;12.406;2022-09-14T00:14:31;18.03;;;13.33;;
17830;SDS011;9040;51.332;12.406;2022-09-14T00:16:58;11.63;;;10.43;;
17830;SDS011;9040;51.332;12.406;2022-09-14T00:19:25;16.80;;;13.27;;
17830;SDS011;9040;51.332;12.406;2022-09-14T00:21:53;21.47;;;14.03;;
17830;SDS011;9040;51.332;12.406;2022-09-14T00:24:22;14.40;;;12.80;;
17830;SDS011;9040;51.332;12.406;2022-09-14T00:26:52;18.40;;;13.17;;
17830;SDS011;9040;51.332;12.406;2022-09-14T00:29:19;22.27;;;12.33;;
17830;SDS011;9040;51.332;12.406;2022-09-14T00:31:46;13.40;;;11.23;;
17830;SDS011;9040;51.332;12.406;2022-09-14T00:34:14;13.23;;;10.83;;
17830;SDS011;9040;51.332;12.406;2022-09-14T00:36:43;15.67;;;10.83;;
17830;SDS011;9040;51.332;12.406;2022-09-14T00:39:11;19.33;;;11.33;;
17830;SDS011;9040;51.332;12.406;2022-09-14T00:41:39;13.53;;;10.57;;
17830;SDS011;9040;51.332;12.406;2022-09-14T00:47:10;13.07;;;10.97;;
17830;SDS011;9040;51.332;12.406;2022-09-14T00:49:39;15.30;;;11.23;;
17830;SDS011;9040;51.332;12.406;2022-09-14T00:52:09;11.53;;;10.17;;
17830;SDS011;9040;51.332;12.406;2022-09-14T00:54:40;15.53;;;12.40;;
17830;SDS011;9040;51.332;12.406;2022-09-14T00:57:10;11.17;;;10.07;;
17830;SDS011;9040;51.332;12.406;2022-09-14T00:59:38;15.63;;;11.77;;
17830;SDS011;9040;51.332;12.406;2022-09-14T01:02:08;12.93;;;11.70;;
17830;SDS011;9040;51.332;12.406;2022-09-14T01:04:38;15.37;;;11.40;;
17830;SDS011;9040;51.332;12.406;2022-09-14T01:07:08;16.43;;;10.97;;
17830;SDS011;9040;51.332;12.406;2022-09-14T01:09:45;11.57;;;10.20;;
17830;SDS011;9040;51.332;12.406;2022-09-14T01:12:21;15.53;;;12.40;;
17830;SDS011;9040;51.332;12.406;2022-09-14T01:14:56;25.93;;;11.70;;
17830;SDS011;9040;51.332;12.406;2022-09-14T01:17:31;26.93;;;18.27;;
17830;SDS011;9040;51.332;12.406;2022-09-14T01:20:09;14.00;;;10.57;;
17830;SDS011;9040;51.332;12.406;2022-09-14T01:22:47;11.03;;;9.87;;
17830;SDS011;9040;51.332;12.406;2022-09-14T01:25:24;18.93;;;12.33;;
17830;SDS011;9040;51.332;12.406;2022-09-14T01:28:04;14.23;;;12.10;;
17830;SDS011;9040;51.332;12.406;2022-09-14T01:30:35;23.13;;;13.70;;
17830;SDS011;9040;51.332;12.406;2022-09-14T01:33:08;12.13;;;10.83;;
17830;SDS011;9040;51.332;12.406;2022-09-14T01:35:42;11.73;;;10.07;;
17830;SDS011;9040;51.332;12.406;2022-09-14T01:38:14;14.33;;;10.00;;
17830;SDS011;9040;51.332;12.406;2022-09-14T01:40:43;15.17;;;10.33;;
17830;SDS011;9040;51.332;12.406;2022-09-14T01:43:15;12.30;;;9.53;;
17830;SDS011;9040;51.332;12.406;2022-09-14T01:45:47;18.60;;;8.73;;
17830;SDS011;9040;51.332;12.406;2022-09-14T01:48:16;18.20;;;8.33;;
17830;SDS011;9040;51.332;12.406;2022-09-14T01:50:48;12.93;;;9.20;;
17830;SDS011;9040;51.332;12.406;2022-09-14T01:53:19;13.57;;;10.30;;
17830;SDS011;9040;51.332;12.406;2022-09-14T01:55:50;17.80;;;10.07;;
17830;SDS011;9040;51.332;12.406;2022-09-14T01:58:23;10.20;;;9.10;;
17830;SDS011;9040;51.332;12.406;2022-09-14T02:00:55;10.53;;;9.40;;
17830;SDS011;9040;51.332;12.406;2022-09-14T02:03:26;13.20;;;8.40;;
17830;SDS011;9040;51.332;12.406;2022-09-14T02:05:58;16.23;;;8.50;;
17830;SDS011;9040;51.332;12.406;2022-09-14T02:08:31;14.07;;;7.87;;
17830;SDS011;9040;51.332;12.406;2022-09-14T02:10:59;11.23;;;8.97;;
17830;SDS011;9040;51.332;12.406;2022-09-14T02:13:28;8.77;;;7.70;;
17830;SDS011;9040;51.332;12.406;2022-09-14T02:15:55;12.13;;;7.80;;
17830;SDS011;9040;51.332;12.406;2022-09-14T02:18:22;11.30;;;7.80;;
17830;SDS011;9040;51.332;12.406;2022-09-14T02:20:50;25.13;;;8.87;;
17830;SDS011;9040;51.332;12.406;2022-09-14T02:23:22;17.30;;;8.07;;
17830;SDS011;9040;51.332;12.406;2022-09-14T02:25:50;12.20;;;7.67;;
17830;SDS011;9040;51.332;12.406;2022-09-14T02:28:17;16.60;;;8.57;;
17830;SDS011;9040;51.332;12.406;2022-09-14T02:30:47;14.40;;;8.53;;
17830;SDS011;9040;51.332;12.406;2022-09-14T02:33:23;12.80;;;8.40;;
17830;SDS011;9040;51.332;12.406;2022-09-14T02:35:57;8.53;;;7.03;;
17830;SDS011;9040;51.332;12.406;2022-09-14T02:38:30;16.23;;;9.50;;
17830;SDS011;9040;51.332;12.406;2022-09-14T02:41:03;10.50;;;7.63;;
17830;SDS011;9040;51.332;12.406;2022-09-14T02:43:38;14.40;;;6.93;;
17830;SDS011;9040;51.332;12.406;2022-09-14T02:46:15;14.23;;;7.40;;
17830;SDS011;9040;51.332;12.406;2022-09-14T02:48:51;11.23;;;8.67;;
17830;SDS011;9040;51.332;12.406;2022-09-14T02:51:24;10.43;;;7.90;;
17830;SDS011;9040;51.332;12.406;2022-09-14T02:54:00;14.03;;;7.40;;
17830;SDS011;9040;51.332;12.406;2022-09-14T02:56:31;9.97;;;7.80;;
17830;SDS011;9040;51.332;12.406;2022-09-14T02:59:00;10.17;;;7.03;;
17830;SDS011;9040;51.332;12.406;2022-09-14T03:01:28;12.90;;;7.57;;
17830;SDS011;9040;51.332;12.406;2022-09-14T03:03:55;15.90;;;7.13;;
17830;SDS011;9040;51.332;12.406;2022-09-14T03:06:22;15.63;;;8.20;;
17830;SDS011;9040;51.332;12.406;2022-09-14T03:08:49;13.00;;;8.03;;
17830;SDS011;9040;51.332;12.406;2022-09-14T03:11:16;6.57;;;5.73;;
17830;SDS011;9040;51.332;12.406;2022-09-14T03:13:43;10.10;;;6.20;;
17830;SDS011;9040;51.332;12.406;2022-09-14T03:16:11;10.10;;;5.97;;
17830;SDS011;9040;51.332;12.406;2022-09-14T03:18:41;9.70;;;5.60;;
17830;SDS011;9040;51.332;12.406;2022-09-14T03:21:09;12.20;;;6.47;;
17830;SDS011;9040;51.332;12.406;2022-09-14T03:23:37;25.20;;;4.77;;
17830;SDS011;9040;51.332;12.406;2022-09-14T03:26:06;6.93;;;4.10;;
17830;SDS011;9040;51.332;12.406;2022-09-14T03:28:33;12.03;;;5.20;;
17830;SDS011;9040;51.332;12.406;2022-09-14T03:31:01;9.27;;;4.10;;
17830;SDS011;9040;51.332;12.406;2022-09-14T03:33:28;5.97;;;4.10;;
17830;SDS011;9040;51.332;12.406;2022-09-14T03:35:57;26.93;;;4.50;;
17830;SDS011;9040;51.332;12.406;2022-09-14T03:38:24;5.93;;;3.80;;
17830;SDS011;9040;51.332;12.406;2022-09-14T03:40:54;14.27;;;3.30;;
17830;SDS011;9040;51.332;12.406;2022-09-14T03:43:21;5.70;;;3.30;;
17830;SDS011;9040;51.332;12.406;2022-09-14T03:45:48;9.80;;;3.63;;
17830;SDS011;9040;51.332;12.406;2022-09-14T03:48:15;8.07;;;3.63;;
17830;SDS011;9040;51.332;12.406;2022-09-14T03:50:42;13.40;;;3.60;;
17830;SDS011;9040;51.332;12.406;2022-09-14T03:53:10;11.07;;;3.23;;
17830;SDS011;9040;51.332;12.406;2022-09-14T03:55:38;8.30;;;3.27;;
17830;SDS011;9040;51.332;12.406;2022-09-14T03:58:05;5.23;;;2.70;;
17830;SDS011;9040;51.332;12.406;2022-09-14T04:00:32;2.50;;;2.07;;
17830;SDS011;9040;51.332;12.406;2022-09-14T04:03:00;12.43;;;3.07;;
17830;SDS011;9040;51.332;12.406;2022-09-14T04:05:27;10.57;;;2.97;;
17830;SDS011;9040;51.332;12.406;2022-09-14T04:07:54;9.40;;;2.90;;
17830;SDS011;9040;51.332;12.406;2022-09-14T04:10:22;5.27;;;3.10;;
17830;SDS011;9040;51.332;12.406;2022-09-14T04:12:49;13.83;;;4.40;;
17830;SDS011;9040;51.332;12.406;2022-09-14T04:15:16;6.10;;;3.53;;
17830;SDS011;9040;51.332;12.406;2022-09-14T04:17:43;7.50;;;3.10;;
17830;SDS011;9040;51.332;12.406;2022-09-14T04:20:10;5.60;;;3.57;;
17830;SDS011;9040;51.332;12.406;2022-09-14T04:22:37;6.07;;;3.10;;
17830;SDS011;9040;51.332;12.406;2022-09-14T04:25:04;7.03;;;3.73;;
17830;SDS011;9040;51.332;12.406;2022-09-14T04:27:33;8.70;;;3.90;;
17830;SDS011;9040;51.332;12.406;2022-09-14T04:29:59;6.40;;;3.40;;
17830;SDS011;9040;51.332;12.406;2022-09-14T04:32:26;5.43;;;3.00;;
17830;SDS011;9040;51.332;12.406;2022-09-14T04:34:53;9.97;;;3.70;;
17830;SDS011;9040;51.332;12.406;2022-09-14T04:37:20;6.17;;;3.17;;
17830;SDS011;9040;51.332;12.406;2022-09-14T04:39:46;9.57;;;3.60;;
17830;SDS011;9040;51.332;12.406;2022-09-14T04:42:13;16.40;;;4.03;;
17830;SDS011;9040;51.332;12.406;2022-09-14T04:44:41;11.43;;;4.47;;
17830;SDS011;9040;51.332;12.406;2022-09-14T04:47:08;16.60;;;3.80;;
17830;SDS011;9040;51.332;12.406;2022-09-14T04:49:35;20.20;;;4.27;;
17830;SDS011;9040;51.332;12.406;2022-09-14T04:52:02;11.00;;;3.83;;
17830;SDS011;9040;51.332;12.406;2022-09-14T04:54:29;16.13;;;4.23;;
17830;SDS011;9040;51.332;12.406;2022-09-14T04:56:56;6.83;;;5.00;;
17830;SDS011;9040;51.332;12.406;2022-09-14T04:59:22;25.87;;;4.93;;
17830;SDS011;9040;51.332;12.406;2022-09-14T05:01:51;19.47;;;3.70;;
17830;SDS011;9040;51.332;12.406;2022-09-14T05:04:17;9.63;;;4.50;;
17830;SDS011;9040;51.332;12.406;2022-09-14T05:06:44;10.47;;;7.17;;
17830;SDS011;9040;51.332;12.406;2022-09-14T05:09:12;6.93;;;4.57;;
17830;SDS011;9040;51.332;12.406;2022-09-14T05:11:40;11.80;;;6.03;;
17830;SDS011;9040;51.332;12.406;2022-09-14T05:14:08;6.57;;;3.73;;
17830;SDS011;9040;51.332;12.406;2022-09-14T05:16:37;7.93;;;3.20;;
17830;SDS011;9040;51.332;12.406;2022-09-14T05:19:07;12.53;;;4.57;;
17830;SDS011;9040;51.332;12.406;2022-09-14T05:21:37;7.00;;;2.63;;
17830;SDS011;9040;51.332;12.406;2022-09-14T05:24:04;13.20;;;3.93;;
17830;SDS011;9040;51.332;12.406;2022-09-14T05:26:33;16.57;;;3.37;;
17830;SDS011;9040;51.332;12.406;2022-09-14T05:29:00;11.57;;;3.67;;
17830;SDS011;9040;51.332;12.406;2022-09-14T05:31:27;26.23;;;4.20;;
17830;SDS011;9040;51.332;12.406;2022-09-14T05:33:55;17.93;;;3.63;;
17830;SDS011;9040;51.332;12.406;2022-09-14T05:36:24;12.13;;;3.30;;
17830;SDS011;9040;51.332;12.406;2022-09-14T05:38:51;9.60;;;4.67;;
17830;SDS011;9040;51.332;12.406;2022-09-14T05:41:18;12.90;;;4.40;;
17830;SDS011;9040;51.332;12.406;2022-09-14T05:43:45;7.00;;;2.73;;
17830;SDS011;9040;51.332;12.406;2022-09-14T05:46:13;4.73;;;3.03;;
17830;SDS011;9040;51.332;12.406;2022-09-14T05:48:44;12.27;;;3.50;;
17830;SDS011;9040;51.332;12.406;2022-09-14T05:51:12;12.40;;;3.70;;
17830;SDS011;9040;51.332;12.406;2022-09-14T05:53:41;20.00;;;2.60;;
17830;SDS011;9040;51.332;12.406;2022-09-14T05:56:09;3.20;;;2.17;;
17830;SDS011;9040;51.332;12.406;2022-09-14T05:58:37;8.37;;;2.70;;
17830;SDS011;9040;51.332;12.406;2022-09-14T06:01:05;11.30;;;2.63;;
17830;SDS011;9040;51.332;12.406;2022-09-14T06:03:33;12.63;;;2.40;;
17830;SDS011;9040;51.332;12.406;2022-09-14T06:06:00;16.77;;;3.23;;
17830;SDS011;9040;51.332;12.406;2022-09-14T06:08:28;7.80;;;2.50;;
17830;SDS011;9040;51.332;12.406;2022-09-14T06:11:01;14.90;;;2.73;;
17830;SDS011;9040;51.332;12.406;2022-09-14T06:13:28;7.50;;;2.60;;
17830;SDS011;9040;51.332;12.406;2022-09-14T06:15:55;19.50;;;5.00;;
17830;SDS011;9040;51.332;12.406;2022-09-14T06:18:28;8.20;;;4.30;;
17830;SDS011;9040;51.332;12.406;2022-09-14T06:20:55;14.77;;;4.60;;
17830;SDS011;9040;51.332;12.406;2022-09-14T06:23:22;22.57;;;3.80;;
17830;SDS011;9040;51.332;12.406;2022-09-14T06:25:51;14.23;;;3.37;;
17830;SDS011;9040;51.332;12.406;2022-09-14T06:28:19;6.83;;;2.70;;
17830;SDS011;9040;51.332;12.406;2022-09-14T06:30:46;12.20;;;4.93;;
17830;SDS011;9040;51.332;12.406;2022-09-14T06:33:13;26.27;;;3.90;;
17830;SDS011;9040;51.332;12.406;2022-09-14T06:35:40;13.00;;;3.90;;
17830;SDS011;9040;51.332;12.406;2022-09-14T06:38:07;22.97;;;4.23;;
17830;SDS011;9040;51.332;12.406;2022-09-14T06:40:34;13.20;;;3.50;;
17830;SDS011;9040;51.332;12.406;2022-09-14T06:43:02;16.97;;;3.90;;
17830;SDS011;9040;51.332;12.406;2022-09-14T06:45:30;10.90;;;2.53;;
17830;SDS011;9040;51.332;12.406;2022-09-14T06:47:57;10.20;;;4.13;;
17830;SDS011;9040;51.332;12.406;2022-09-14T06:50:24;9.97;;;3.90;;
17830;SDS011;9040;51.332;12.406;2022-09-14T06:52:51;18.03;;;4.20;;
17830;SDS011;9040;51.332;12.406;2022-09-14T06:55:18;7.93;;;4.20;;
17830;SDS011;9040;51.332;12.406;2022-09-14T06:57:46;8.57;;;3.60;;
17830;SDS011;9040;51.332;12.406;2022-09-14T07:00:13;9.67;;;2.73;;
17830;SDS011;9040;51.332;12.406;2022-09-14T07:02:42;28.93;;;4.50;;
17830;SDS011;9040;51.332;12.406;2022-09-14T07:05:09;5.67;;;2.63;;
17830;SDS011;9040;51.332;12.406;2022-09-14T07:07:38;9.43;;;3.70;;
17830;SDS011;9040;51.332;12.406;2022-09-14T07:10:05;15.97;;;3.93;;
17830;SDS011;9040;51.332;12.406;2022-09-14T07:12:32;7.40;;;2.73;;
17830;SDS011;9040;51.332;12.406;2022-09-14T07:14:59;9.40;;;3.13;;
17830;SDS011;9040;51.332;12.406;2022-09-14T07:17:28;8.47;;;1.90;;
17830;SDS011;9040;51.332;12.406;2022-09-14T07:19:57;11.60;;;4.73;;
17830;SDS011;9040;51.332;12.406;2022-09-14T07:22:23;7.40;;;2.37;;
17830;SDS011;9040;51.332;12.406;2022-09-14T07:24:50;15.93;;;2.40;;
17830;SDS011;9040;51.332;12.406;2022-09-14T07:27:17;14.60;;;1.70;;
17830;SDS011;9040;51.332;12.406;2022-09-14T07:29:44;7.13;;;1.50;;
17830;SDS011;9040;51.332;12.406;2022-09-14T07:32:11;8.57;;;2.33;;
17830;SDS011;9040;51.332;12.406;2022-09-14T07:34:38;10.93;;;3.47;;
17830;SDS011;9040;51.332;12.406;2022-09-14T07:37:06;3.70;;;2.10;;
17830;SDS011;9040;51.332;12.406;2022-09-14T07:39:33;11.10;;;2.60;;
17830;SDS011;9040;51.332;12.406;2022-09-14T07:41:59;14.20;;;5.10;;
17830;SDS011;9040;51.332;12.406;2022-09-14T07:44:26;6.57;;;2.57;;
17830;SDS011;9040;51.332;12.406;2022-09-14T07:46:53;28.83;;;3.80;;
17830;SDS011;9040;51.332;12.406;2022-09-14T07:49:20;6.20;;;2.73;;
17830;SDS011;9040;51.332;12.406;2022-09-14T07:51:48;11.97;;;4.47;;
17830;SDS011;9040;51.332;12.406;2022-09-14T07:54:16;9.70;;;2.60;;
17830;SDS011;9040;51.332;12.406;2022-09-14T07:56:43;5.67;;;2.80;;
17830;SDS011;9040;51.332;12.406;2022-09-14T07:59:11;19.97;;;3.27;;
17830;SDS011;9040;51.332;12.406;2022-09-14T08:01:39;16.87;;;3.63;;
17830;SDS011;9040;51.332;12.406;2022-09-14T08:04:06;14.07;;;2.67;;
17830;SDS011;9040;51.332;12.406;2022-09-14T08:06:33;4.00;;;2.40;;
17830;SDS011;9040;51.332;12.406;2022-09-14T08:09:03;9.67;;;2.03;;
17830;SDS011;9040;51.332;12.406;2022-09-14T08:11:33;22.47;;;3.30;;
17830;SDS011;9040;51.332;12.406;2022-09-14T08:14:02;5.67;;;2.30;;
17830;SDS011;9040;51.332;12.406;2022-09-14T08:16:33;18.80;;;4.20;;
17830;SDS011;9040;51.332;12.406;2022-09-14T08:19:03;10.80;;;3.60;;
17830;SDS011;9040;51.332;12.406;2022-09-14T08:21:34;23.17;;;8.37;;
17830;SDS011;9040;51.332;12.406;2022-09-14T08:24:02;13.97;;;3.13;;
17830;SDS011;9040;51.332;12.406;2022-09-14T08:26:29;11.50;;;3.00;;
17830;SDS011;9040;51.332;12.406;2022-09-14T08:28:58;10.83;;;3.53;;
17830;SDS011;9040;51.332;12.406;2022-09-14T08:31:25;10.80;;;2.20;;
17830;SDS011;9040;51.332;12.406;2022-09-14T08:33:54;5.10;;;2.90;;
17830;SDS011;9040;51.332;12.406;2022-09-14T08:36:22;10.20;;;2.67;;
17830;SDS011;9040;51.332;12.406;2022-09-14T08:38:51;15.70;;;2.20;;
17830;SDS011;9040;51.332;12.406;2022-09-14T08:41:22;9.83;;;2.10;;
17830;SDS011;9040;51.332;12.406;2022-09-14T08:43:53;19.77;;;3.57;;
17830;SDS011;9040;51.332;12.406;2022-09-14T08:46:26;10.67;;;2.93;;
17830;SDS011;9040;51.332;12.406;2022-09-14T08:48:56;33.77;;;4.63;;
17830;SDS011;9040;51.332;12.406;2022-09-14T08:51:24;8.40;;;2.80;;
17830;SDS011;9040;51.332;12.406;2022-09-14T08:53:51;13.03;;;3.40;;
17830;SDS011;9040;51.332;12.406;2022-09-14T08:56:21;21.23;;;3.53;;
17830;SDS011;9040;51.332;12.406;2022-09-14T08:58:53;10.53;;;2.47;;
17830;SDS011;9040;51.332;12.406;2022-09-14T09:01:32;18.43;;;3.03;;
17830;SDS011;9040;51.332;12.406;2022-09-14T09:04:15;13.43;;;2.10;;
17830;SDS011;9040;51.332;12.406;2022-09-14T09:06:55;13.17;;;2.67;;
17830;SDS011;9040;51.332;12.406;2022-09-14T09:09:27;16.00;;;4.60;;
17830;SDS011;9040;51.332;12.406;2022-09-14T09:11:58;13.97;;;5.80;;
17830;SDS011;9040;51.332;12.406;2022-09-14T09:14:26;10.47;;;2.20;;
17830;SDS011;9040;51.332;12.406;2022-09-14T09:16:59;15.57;;;1.83;;
17830;SDS011;9040;51.332;12.406;2022-09-14T09:19:30;11.07;;;3.60;;
17830;SDS011;9040;51.332;12.406;2022-09-14T09:22:02;14.60;;;2.70;;
17830;SDS011;9040;51.332;12.406;2022-09-14T09:24:32;13.37;;;2.57;;
17830;SDS011;9040;51.332;12.406;2022-09-14T09:27:04;12.37;;;3.57;;
17830;SDS011;9040;51.332;12.406;2022-09-14T09:29:35;17.97;;;3.10;;
17830;SDS011;9040;51.332;12.406;2022-09-14T09:32:04;3.90;;;1.90;;
17830;SDS011;9040;51.332;12.406;2022-09-14T09:34:33;7.50;;;2.00;;
17830;SDS011;9040;51.332;12.406;2022-09-14T09:37:00;22.73;;;2.87;;
17830;SDS011;9040;51.332;12.406;2022-09-14T09:39:28;13.10;;;3.43;;
17830;SDS011;9040;51.332;12.406;2022-09-14T09:41:57;12.37;;;2.80;;
17830;SDS011;9040;51.332;12.406;2022-09-14T09:44:28;10.80;;;3.57;;
17830;SDS011;9040;51.332;12.406;2022-09-14T09:46:55;12.27;;;3.13;;
17830;SDS011;9040;51.332;12.406;2022-09-14T09:49:27;11.27;;;3.90;;
17830;SDS011;9040;51.332;12.406;2022-09-14T09:51:56;14.33;;;4.23;;
17830;SDS011;9040;51.332;12.406;2022-09-14T09:54:33;11.27;;;2.90;;
17830;SDS011;9040;51.332;12.406;2022-09-14T09:57:01;4.47;;;2.27;;
17830;SDS011;9040;51.332;12.406;2022-09-14T09:59:31;15.43;;;3.07;;
17830;SDS011;9040;51.332;12.406;2022-09-14T10:02:17;13.63;;;2.10;;
17830;SDS011;9040;51.332;12.406;2022-09-14T10:05:02;4.87;;;2.00;;
17830;SDS011;9040;51.332;12.406;2022-09-14T10:07:32;8.20;;;2.63;;
17830;SDS011;9040;51.332;12.406;2022-09-14T10:10:03;6.87;;;2.60;;
17830;SDS011;9040;51.332;12.406;2022-09-14T10:12:36;7.20;;;1.90;;
17830;SDS011;9040;51.332;12.406;2022-09-14T10:15:14;12.47;;;2.43;;
17830;SDS011;9040;51.332;12.406;2022-09-14T10:17:56;8.83;;;3.57;;
17830;SDS011;9040;51.332;12.406;2022-09-14T10:20:43;10.87;;;3.13;;
17830;SDS011;9040;51.332;12.406;2022-09-14T10:23:30;15.37;;;4.73;;
17830;SDS011;9040;51.332;12.406;2022-09-14T10:29:19;19.03;;;4.67;;
17830;SDS011;9040;51.332;12.406;2022-09-14T10:31:56;7.10;;;2.67;;
17830;SDS011;9040;51.332;12.406;2022-09-14T10:34:29;20.80;;;2.60;;
17830;SDS011;9040;51.332;12.406;2022-09-14T10:36:59;18.37;;;3.13;;
17830;SDS011;9040;51.332;12.406;2022-09-14T10:39:34;11.70;;;6.70;;
17830;SDS011;9040;51.332;12.406;2022-09-14T10:42:12;8.97;;;2.60;;
17830;SDS011;9040;51.332;12.406;2022-09-14T10:44:48;9.57;;;2.70;;
17830;SDS011;9040;51.332;12.406;2022-09-14T10:47:30;16.83;;;8.30;;
17830;SDS011;9040;51.332;12.406;2022-09-14T10:50:17;13.03;;;1.90;;
17830;SDS011;9040;51.332;12.406;2022-09-14T10:52:55;10.63;;;4.97;;
17830;SDS011;9040;51.332;12.406;2022-09-14T10:55:33;13.80;;;7.53;;
17830;SDS011;9040;51.332;12.406;2022-09-14T10:58:16;18.03;;;5.67;;
17830;SDS011;9040;51.332;12.406;2022-09-14T11:00:51;14.13;;;6.07;;
17830;SDS011;9040;51.332;12.406;2022-09-14T11:03:31;6.63;;;2.20;;
17830;SDS011;9040;51.332;12.406;2022-09-14T11:06:22;11.03;;;2.20;;
17830;SDS011;9040;51.332;12.406;2022-09-14T11:08:58;26.30;;;3.63;;
17830;SDS011;9040;51.332;12.406;2022-09-14T11:11:30;7.30;;;2.13;;
17830;SDS011;9040;51.332;12.406;2022-09-14T11:14:10;5.63;;;2.40;;
17830;SDS011;9040;51.332;12.406;2022-09-14T11:16:52;7.03;;;2.13;;
17830;SDS011;9040;51.332;12.406;2022-09-14T11:19:29;7.23;;;2.67;;
17830;SDS011;9040;51.332;12.406;2022-09-14T11:22:04;10.17;;;2.30;;
17830;SDS011;9040;51.332;12.406;2022-09-14T11:24:40;19.20;;;2.33;;
17830;SDS011;9040;51.332;12.406;2022-09-14T11:27:15;8.53;;;1.97;;
17830;SDS011;9040;51.332;12.406;2022-09-14T11:29:50;7.40;;;2.57;;
17830;SDS011;9040;51.332;12.406;2022-09-14T11:32:21;5.40;;;2.60;;
17830;SDS011;9040;51.332;12.406;2022-09-14T11:34:53;9.70;;;3.80;;
17830;SDS011;9040;51.332;12.406;2022-09-14T11:37:31;8.07;;;2.40;;
17830;SDS011;9040;51.332;12.406;2022-09-14T11:40:07;8.87;;;3.17;;
17830;SDS011;9040;51.332;12.406;2022-09-14T11:42:44;7.53;;;2.60;;
17830;SDS011;9040;51.332;12.406;2022-09-14T11:45:18;15.93;;;2.20;;
17830;SDS011;9040;51.332;12.406;2022-09-14T11:47:52;11.13;;;2.60;;
17830;SDS011;9040;51.332;12.406;2022-09-14T11:50:25;7.27;;;3.77;;
17830;SDS011;9040;51.332;12.406;2022-09-14T11:53:00;8.23;;;3.20;;
17830;SDS011;9040;51.332;12.406;2022-09-14T11:55:31;4.83;;;2.40;;
17830;SDS011;9040;51.332;12.406;2022-09-14T11:57:58;12.67;;;4.40;;
17830;SDS011;9040;51.332;12.406;2022-09-14T12:03:43;19.33;;;6.73;;
17830;SDS011;9040;51.332;12.406;2022-09-14T12:06:52;8.70;;;4.93;;
17830;SDS011;9040;51.332;12.406;2022-09-14T12:15:03;6.80;;;2.63;;
17830;SDS011;9040;51.332;12.406;2022-09-14T12:17:48;8.57;;;3.00;;
17830;SDS011;9040;51.332;12.406;2022-09-14T12:23:12;10.73;;;3.63;;
17830;SDS011;9040;51.332;12.406;2022-09-14T12:25:52;8.80;;;3.00;;
17830;SDS011;9040;51.332;12.406;2022-09-14T12:28:38;7.20;;;2.90;;
17830;SDS011;9040;51.332;12.406;2022-09-14T12:31:12;4.47;;;2.43;;
17830;SDS011;9040;51.332;12.406;2022-09-14T12:34:03;7.57;;;3.27;;
17830;SDS011;9040;51.332;12.406;2022-09-14T12:39:30;13.90;;;2.90;;
17830;SDS011;9040;51.332;12.406;2022-09-14T12:42:02;8.00;;;2.03;;
17830;SDS011;9040;51.332;12.406;2022-09-14T12:44:49;9.47;;;2.50;;
17830;SDS011;9040;51.332;12.406;2022-09-14T12:50:19;12.63;;;3.80;;
17830;SDS011;9040;51.332;12.406;2022-09-14T12:52:50;11.73;;;2.63;;
17830;SDS011;9040;51.332;12.406;2022-09-14T12:55:37;9.40;;;3.10;;
17830;SDS011;9040;51.332;12.406;2022-09-14T12:58:27;16.30;;;3.70;;
17830;SDS011;9040;51.332;12.406;2022-09-14T13:01:17;13.70;;;3.80;;
17830;SDS011;9040;51.332;12.406;2022-09-14T13:03:51;14.07;;;4.00;;
17830;SDS011;9040;51.332;12.406;2022-09-14T13:06:20;6.80;;;3.20;;
17830;SDS011;9040;51.332;12.406;2022-09-14T13:08:49;13.23;;;3.93;;
17830;SDS011;9040;51.332;12.406;2022-09-14T13:11:20;11.33;;;4.13;;
17830;SDS011;9040;51.332;12.406;2022-09-14T13:13:50;9.80;;;2.67;;
17830;SDS011;9040;51.332;12.406;2022-09-14T13:16:22;17.37;;;3.60;;
17830;SDS011;9040;51.332;12.406;2022-09-14T13:18:59;8.77;;;3.40;;
17830;SDS011;9040;51.332;12.406;2022-09-14T13:21:27;12.83;;;3.70;;
17830;SDS011;9040;51.332;12.406;2022-09-14T13:23:54;12.67;;;4.60;;
17830;SDS011;9040;51.332;12.406;2022-09-14T13:26:22;8.40;;;3.07;;
17830;SDS011;9040;51.332;12.406;2022-09-14T13:28:51;10.40;;;4.00;;
17830;SDS011;9040;51.332;12.406;2022-09-14T13:31:23;19.30;;;4.20;;
17830;SDS011;9040;51.332;12.406;2022-09-14T13:33:53;11.37;;;4.87;;
17830;SDS011;9040;51.332;12.406;2022-09-14T13:36:22;6.77;;;3.67;;
17830;SDS011;9040;51.332;12.406;2022-09-14T13:38:50;16.13;;;4.77;;
17830;SDS011;9040;51.332;12.406;2022-09-14T13:41:18;11.33;;;4.00;;
17830;SDS011;9040;51.332;12.406;2022-09-14T13:43:47;12.30;;;3.93;;
17830;SDS011;9040;51.332;12.406;2022-09-14T13:46:18;16.93;;;5.10;;
17830;SDS011;9040;51.332;12.406;2022-09-14T13:48:47;11.97;;;3.70;;
17830;SDS011;9040;51.332;12.406;2022-09-14T13:51:14;20.43;;;5.00;;
17830;SDS011;9040;51.332;12.406;2022-09-14T13:53:43;9.97;;;3.23;;
17830;SDS011;9040;51.332;12.406;2022-09-14T13:56:20;9.83;;;4.10;;
17830;SDS011;9040;51.332;12.406;2022-09-14T13:58:50;15.83;;;3.20;;
17830;SDS011;9040;51.332;12.406;2022-09-14T14:01:49;10.57;;;4.30;;
17830;SDS011;9040;51.332;12.406;2022-09-14T14:04:23;13.10;;;5.57;;
17830;SDS011;9040;51.332;12.406;2022-09-14T14:07:06;11.77;;;3.47;;
17830;SDS011;9040;51.332;12.406;2022-09-14T14:09:42;11.00;;;4.63;;
17830;SDS011;9040;51.332;12.406;2022-09-14T14:12:11;21.87;;;12.57;;
17830;SDS011;9040;51.332;12.406;2022-09-14T14:14:56;31.63;;;17.07;;
17830;SDS011;9040;51.332;12.406;2022-09-14T14:17:31;22.47;;;9.70;;
17830;SDS011;9040;51.332;12.406;2022-09-14T14:22:54;11.20;;;3.73;;
17830;SDS011;9040;51.332;12.406;2022-09-14T14:25:26;16.20;;;9.67;;
17830;SDS011;9040;51.332;12.406;2022-09-14T14:27:56;10.30;;;4.30;;
17830;SDS011;9040;51.332;12.406;2022-09-14T14:30:26;15.63;;;5.20;;
17830;SDS011;9040;51.332;12.406;2022-09-14T14:32:54;6.43;;;4.30;;
17830;SDS011;9040;51.332;12.406;2022-09-14T14:35:23;16.03;;;7.80;;
17830;SDS011;9040;51.332;12.406;2022-09-14T14:37:51;12.90;;;7.53;;
17830;SDS011;9040;51.332;12.406;2022-09-14T14:40:19;7.53;;;4.67;;
17830;SDS011;9040;51.332;12.406;2022-09-14T14:42:46;7.47;;;4.70;;
17830;SDS011;9040;51.332;12.406;2022-09-14T14:45:14;6.90;;;4.60;;
17830;SDS011;9040;51.332;12.406;2022-09-14T14:47:45;6.40;;;3.57;;
17830;SDS011;9040;51.332;12.406;2022-09-14T14:50:14;10.50;;;6.47;;
17830;SDS011;9040;51.332;12.406;2022-09-14T14:52:42;17.60;;;7.47;;
17830;SDS011;9040;51.332;12.406;2022-09-14T14:55:09;9.43;;;4.80;;
17830;SDS011;9040;51.332;12.406;2022-09-14T14:57:36;11.03;;;6.10;;
17830;SDS011;9040;51.332;12.406;2022-09-14T15:00:03;8.27;;;4.40;;
17830;SDS011;9040;51.332;12.406;2022-09-14T15:02:35;7.43;;;4.17;;
17830;SDS011;9040;51.332;12.406;2022-09-14T15:05:04;10.57;;;4.17;;
17830;SDS011;9040;51.332;12.406;2022-09-14T15:07:31;13.00;;;4.40;;
17830;SDS011;9040;51.332;12.406;2022-09-14T15:09:58;16.67;;;4.47;;
17830;SDS011;9040;51.332;12.406;2022-09-14T15:12:25;8.77;;;4.27;;
17830;SDS011;9040;51.332;12.406;2022-09-14T15:14:52;15.53;;;4.97;;
17830;SDS011;9040;51.332;12.406;2022-09-14T15:17:19;13.10;;;5.10;;
17830;SDS011;9040;51.332;12.406;2022-09-14T15:19:45;19.60;;;5.83;;
17830;SDS011;9040;51.332;12.406;2022-09-14T15:22:14;9.23;;;5.50;;
17830;SDS011;9040;51.332;12.406;2022-09-14T15:24:41;15.20;;;4.37;;
17830;SDS011;9040;51.332;12.406;2022-09-14T15:27:08;8.53;;;3.80;;